Terminal Aerodrome Forecast
Issued by NWS Sioux Falls, SD

Home | Current Version | Previous Version | Graphics & Text | Print | Product List | Glossary On
Versions: 1 2 3 4 5 6 7 8 9 10 11 12 13 14 15 16 17 18 19 20 21 22 23 24 25 26
906
FTUS43 KFSD 231120
TAFSUX
TAF
KSUX 231120Z 2312/2412 32006KT P6SM FEW250
     FM231800 24004KT P6SM FEW250
     FM232100 18007KT P6SM FEW250
     FM240200 16006KT P6SM BKN200
     FM240600 15007KT P6SM FEW250=

USA.gov is the U.S. government's official web portal to all federal, state and local government web resources and services.